Time;durP1;ratioP1;P1;durP2;ratioP2;P2;SDS_P1;SDS_P2;PMS_P1;PMS_P2;Temp;Humidity;BMP_temperature;BMP_pressure;BME280_temperature;BME280_humidity;BME280_pressure;Samples;Min_cycle;Max_cycle;Signal;HPM_P1;HPM_P2
2023/03/18 00:01:31;;;;;;;34.08;19.57;;;;;;;4.97;100.00;100627.50;1678475;85;21201;-88
2023/03/18 00:04:37;;;;;;;28.20;16.60;;;;;;;4.90;100.00;100631.75;1677816;82;21222;-90
2023/03/18 00:07:42;;;;;;;31.57;18.60;;;;;;;4.87;100.00;100619.31;1678631;85;21805;-88
2023/03/18 00:10:48;;;;;;;30.82;19.07;;;;;;;4.86;100.00;100623.87;1677154;85;21216;-88
2023/03/18 00:13:54;;;;;;;26.45;19.23;;;;;;;4.84;100.00;100624.48;1678124;85;21157;-89
2023/03/18 00:17:00;;;;;;;28.32;18.52;;;;;;;4.91;100.00;100621.27;1678358;85;21208;-89
2023/03/18 00:20:05;;;;;;;27.95;19.30;;;;;;;4.88;100.00;100618.31;1678204;85;21334;-89
2023/03/18 00:23:14;;;;;;;28.27;19.17;;;;;;;4.96;100.00;100628.50;1677024;85;21244;-89
2023/03/18 00:26:19;;;;;;;27.98;19.07;;;;;;;4.88;100.00;100627.30;1678330;85;21252;-89
2023/03/18 00:29:25;;;;;;;33.10;20.35;;;;;;;4.85;100.00;100628.94;1676977;85;21235;-88
2023/03/18 00:32:33;;;;;;;28.42;19.82;;;;;;;4.90;100.00;100618.20;1678374;85;21208;-88
2023/03/18 00:35:39;;;;;;;28.70;20.75;;;;;;;4.88;100.00;100624.59;1676954;85;21315;-88
2023/03/18 00:38:45;;;;;;;34.90;19.32;;;;;;;4.93;100.00;100623.34;1676977;85;21223;-89
2023/03/18 00:41:51;;;;;;;30.20;20.10;;;;;;;4.77;100.00;100633.30;1678412;85;21240;-89
2023/03/18 00:44:57;;;;;;;32.58;21.02;;;;;;;4.79;100.00;100624.02;1677664;85;21735;-90
2023/03/18 00:48:06;;;;;;;31.02;19.85;;;;;;;4.81;100.00;100623.41;1651704;85;21268;-89
2023/03/18 00:51:13;;;;;;;30.52;20.77;;;;;;;4.66;100.00;100627.44;1677413;85;21220;-90
2023/03/18 00:54:20;;;;;;;29.55;18.65;;;;;;;4.73;100.00;100620.48;1678372;85;21181;-89
2023/03/18 00:57:26;;;;;;;28.62;20.30;;;;;;;4.67;100.00;100622.88;1678356;85;21850;-89
2023/03/18 01:29:00;;;;;;;30.97;21.45;;;;;;;4.52;100.00;100632.67;1678584;84;21304;-89
2023/03/18 01:32:10;;;;;;;36.10;21.30;;;;;;;4.50;100.00;100629.72;1678871;85;21185;-88
2023/03/18 01:35:16;;;;;;;29.60;21.17;;;;;;;4.50;100.00;100637.84;1678323;85;21267;-89
2023/03/18 01:38:22;;;;;;;34.18;21.75;;;;;;;4.51;100.00;100640.91;1678603;85;21430;-88
2023/03/18 01:41:35;;;;;;;44.55;24.70;;;;;;;4.44;100.00;100631.59;1679169;85;21736;-88
2023/03/18 01:44:45;;;;;;;43.13;25.97;;;;;;;4.49;100.00;100652.38;1683168;85;21263;-90
2023/03/18 01:47:52;;;;;;;40.17;24.00;;;;;;;4.36;100.00;100631.73;1684188;85;21235;-90
2023/03/18 01:51:15;;;;;;;36.60;24.18;;;;;;;4.45;100.00;100638.73;1684189;85;21838;-90
2023/03/18 01:54:20;;;;;;;41.48;24.40;;;;;;;4.31;100.00;100638.03;1684234;85;21208;-89
2023/03/18 01:57:27;;;;;;;39.88;23.85;;;;;;;4.35;100.00;100635.44;1682849;85;21442;-89
2023/03/18 02:00:32;;;;;;;38.95;24.00;;;;;;;4.35;100.00;100631.88;1684431;85;21212;-89
2023/03/18 02:03:38;;;;;;;33.05;22.90;;;;;;;4.23;100.00;100645.92;1684180;85;21208;-89
2023/03/18 02:06:48;;;;;;;38.60;24.12;;;;;;;4.25;100.00;100643.97;1683113;85;21794;-88
2023/03/18 02:09:47;;;;;;;46.30;25.57;;;;;;;4.29;100.00;100648.14;1684155;85;21192;-87
2023/03/18 02:12:44;;;;;;;36.85;24.40;;;;;;;4.33;100.00;100644.70;1682648;85;21212;-88
2023/03/18 02:16:02;;;;;;;41.28;24.02;;;;;;;4.25;100.00;100647.17;1683581;85;21160;-89
2023/03/18 02:19:12;;;;;;;39.95;24.12;;;;;;;4.20;100.00;100642.64;1683993;85;21180;-89
2023/03/18 02:22:47;;;;;;;31.62;21.50;;;;;;;4.35;100.00;100645.41;1683782;85;21256;-89
2023/03/18 02:26:27;;;;;;;33.50;22.50;;;;;;;4.36;100.00;100652.54;1682574;85;21161;-88
2023/03/18 02:29:37;;;;;;;35.17;23.07;;;;;;;4.35;100.00;100646.27;1671044;85;21834;-89
2023/03/18 02:32:42;;;;;;;27.27;20.75;;;;;;;4.24;100.00;100663.92;1664929;85;21232;-89
2023/03/18 02:35:50;;;;;;;33.63;21.82;;;;;;;4.25;100.00;100670.19;1682696;85;21813;-88
2023/03/18 02:38:59;;;;;;;29.60;19.70;;;;;;;4.21;100.00;100667.36;1684335;81;21128;-88
2023/03/18 02:42:05;;;;;;;29.90;20.12;;;;;;;4.22;100.00;100670.43;1682861;81;21444;-89
2023/03/18 02:45:16;;;;;;;27.48;19.65;;;;;;;4.16;100.00;100673.66;1679278;81;21284;-88
2023/03/18 02:48:24;;;;;;;33.00;19.20;;;;;;;4.13;100.00;100665.28;1676554;81;21197;-90
2023/03/18 02:51:31;;;;;;;30.90;19.95;;;;;;;4.25;100.00;100668.84;1675461;85;21252;-89
2023/03/18 02:54:37;;;;;;;28.60;20.25;;;;;;;4.23;100.00;100672.14;1673922;84;21172;-88
2023/03/18 02:57:42;;;;;;;37.38;21.27;;;;;;;4.33;100.00;100667.72;1675275;84;21209;-88
2023/03/18 03:00:48;;;;;;;33.88;21.93;;;;;;;4.24;100.00;100667.98;1675225;85;21216;-88
2023/03/18 03:03:55;;;;;;;31.55;19.30;;;;;;;4.15;100.00;100665.17;1671166;85;21253;-90
2023/03/18 03:07:02;;;;;;;26.93;17.95;;;;;;;4.22;100.00;100674.49;1652291;87;21461;-89
2023/03/18 03:10:12;;;;;;;24.30;17.60;;;;;;;4.15;100.00;100671.94;1665058;86;21207;-90
2023/03/18 03:13:19;;;;;;;23.02;16.73;;;;;;;4.13;100.00;100661.71;1651693;86;21224;-89
2023/03/18 03:16:27;;;;;;;23.15;16.80;;;;;;;4.12;100.00;100662.70;1665901;86;21266;-88
2023/03/18 03:19:33;;;;;;;27.48;17.82;;;;;;;4.12;100.00;100667.63;1669415;85;21205;-90
2023/03/18 03:22:40;;;;;;;30.65;19.12;;;;;;;4.18;100.00;100672.52;1681417;85;21261;-88
2023/03/18 03:25:46;;;;;;;30.35;19.15;;;;;;;4.13;100.00;100674.75;1681691;85;21249;-89
2023/03/18 03:28:52;;;;;;;27.52;18.35;;;;;;;4.08;100.00;100672.42;1681735;85;21851;-88
2023/03/18 03:31:58;;;;;;;27.10;19.05;;;;;;;4.14;100.00;100677.85;1681631;85;21189;-88
2023/03/18 03:35:07;;;;;;;28.92;17.77;;;;;;;4.17;100.00;100672.16;1681732;85;21205;-89
2023/03/18 03:38:13;;;;;;;26.20;17.48;;;;;;;4.17;100.00;100673.52;1681426;85;21791;-88
2023/03/18 03:41:18;;;;;;;27.45;16.75;;;;;;;4.20;100.00;100674.63;1681399;85;21197;-88
2023/03/18 03:44:24;;;;;;;23.45;15.28;;;;;;;4.21;100.00;100678.19;1681779;85;21245;-89
2023/03/18 03:47:30;;;;;;;21.80;14.85;;;;;;;4.22;100.00;100682.13;1684277;85;21248;-89
2023/03/18 03:50:37;;;;;;;21.30;14.45;;;;;;;4.08;100.00;100679.69;1668401;85;21838;-88
2023/03/18 03:53:45;;;;;;;21.10;14.73;;;;;;;4.09;100.00;100685.46;1686353;85;21782;-88
2023/03/18 03:56:52;;;;;;;22.17;15.32;;;;;;;4.07;100.00;100700.98;1685942;83;21232;-88
2023/03/18 03:59:59;;;;;;;19.92;13.28;;;;;;;4.01;100.00;100686.11;1681076;82;21149;-89
2023/03/18 04:03:05;;;;;;;17.23;13.20;;;;;;;3.95;100.00;100689.33;1687248;84;21318;-88
2023/03/18 04:06:12;;;;;;;23.40;14.43;;;;;;;3.94;100.00;100689.42;1687432;82;21188;-88
2023/03/18 04:09:19;;;;;;;21.02;14.80;;;;;;;3.96;100.00;100689.69;1686613;84;21396;-88
2023/03/18 04:12:27;;;;;;;23.32;14.90;;;;;;;3.96;100.00;100680.70;1687465;84;21251;-89
2023/03/18 04:15:33;;;;;;;21.48;15.08;;;;;;;3.93;100.00;100689.06;1687206;83;21234;-90
2023/03/18 04:18:41;;;;;;;19.30;13.80;;;;;;;3.90;100.00;100686.59;1686049;84;21335;-89
2023/03/18 04:21:47;;;;;;;23.12;15.40;;;;;;;3.93;100.00;100682.30;1686102;84;21255;-90
2023/03/18 04:24:53;;;;;;;28.55;14.45;;;;;;;3.89;100.00;100691.64;1686862;83;21219;-90
2023/03/18 04:27:59;;;;;;;24.98;14.30;;;;;;;3.91;100.00;100694.61;1686516;81;21203;-88
2023/03/18 04:31:05;;;;;;;27.20;14.70;;;;;;;3.93;100.00;100701.25;1687118;85;21195;-89
2023/03/18 04:34:12;;;;;;;23.95;14.83;;;;;;;3.90;100.00;100709.59;1687202;84;21786;-89
2023/03/18 04:37:19;;;;;;;26.02;16.80;;;;;;;3.86;100.00;100700.89;1686863;84;21283;-89
2023/03/18 04:40:24;;;;;;;24.87;14.25;;;;;;;3.83;100.00;100706.05;1686116;84;21999;-90
2023/03/18 04:43:32;;;;;;;26.25;15.78;;;;;;;3.81;100.00;100709.38;1687387;84;21800;-88
2023/03/18 04:46:38;;;;;;;24.37;15.10;;;;;;;3.81;100.00;100710.73;1679314;85;21424;-89
2023/03/18 04:49:45;;;;;;;27.17;14.50;;;;;;;3.81;100.00;100728.78;1655581;82;21186;-90
2023/03/18 04:52:51;;;;;;;21.40;15.10;;;;;;;3.79;100.00;100721.30;1666424;86;21200;-89
2023/03/18 04:55:59;;;;;;;23.62;14.73;;;;;;;3.80;100.00;100710.34;1666443;85;21230;-89
2023/03/18 04:59:06;;;;;;;21.73;15.65;;;;;;;3.81;100.00;100720.20;1666318;86;21239;-88
2023/03/18 05:02:07;;;;;;;21.87;15.13;;;;;;;3.80;100.00;100711.69;1667782;86;21790;-89
2023/03/18 05:05:13;;;;;;;24.72;16.20;;;;;;;3.88;100.00;100736.80;1666434;86;21275;-90
2023/03/18 05:08:19;;;;;;;35.98;15.40;;;;;;;3.91;100.00;100720.82;1666419;85;21211;-89
2023/03/18 05:11:26;;;;;;;29.02;16.27;;;;;;;3.90;100.00;100721.28;1667545;86;21321;-90
2023/03/18 05:14:40;;;;;;;28.42;17.65;;;;;;;3.97;100.00;100726.59;1664375;85;21208;-88
2023/03/18 05:17:46;;;;;;;27.13;17.17;;;;;;;3.99;100.00;100723.25;1667534;86;21240;-88
2023/03/18 05:20:53;;;;;;;28.83;17.77;;;;;;;4.07;100.00;100724.85;1666638;85;21208;-89
2023/03/18 05:24:00;;;;;;;30.90;17.90;;;;;;;3.98;100.00;100730.16;1667741;86;21815;-89
2023/03/18 05:27:06;;;;;;;30.05;18.60;;;;;;;4.35;100.00;100730.23;1667587;86;21211;-89
2023/03/18 05:30:15;;;;;;;33.67;18.90;;;;;;;4.27;100.00;100736.75;1666453;86;21388;-88
2023/03/18 05:33:23;;;;;;;30.27;18.95;;;;;;;4.24;100.00;100732.97;1667853;86;21259;-89
2023/03/18 05:36:28;;;;;;;29.60;17.80;;;;;;;4.28;100.00;100746.63;1667295;86;21208;-89
2023/03/18 05:39:35;;;;;;;29.27;17.10;;;;;;;4.36;100.00;100748.19;1666433;85;21870;-88
2023/03/18 05:42:44;;;;;;;28.77;17.45;;;;;;;4.36;100.00;100748.19;1667619;86;21207;-88
2023/03/18 05:46:00;;;;;;;29.65;18.05;;;;;;;4.39;100.00;100750.30;1667055;86;21231;-88
2023/03/18 05:49:07;;;;;;;28.38;15.53;;;;;;;4.45;100.00;100748.43;1647965;87;21256;-88
2023/03/18 05:52:16;;;;;;;32.78;17.50;;;;;;;4.46;100.00;100763.69;1662467;86;21260;-89
2023/03/18 05:55:23;;;;;;;34.55;17.27;;;;;;;4.48;100.00;100754.96;1677238;85;21212;-89
2023/03/18 05:58:30;;;;;;;26.77;16.80;;;;;;;4.56;100.00;100742.98;1677719;85;21252;-89
2023/03/18 06:01:31;;;;;;;25.77;17.15;;;;;;;4.65;100.00;100752.19;1664232;86;21201;-90
2023/03/18 06:04:25;;;;;;;34.03;17.07;;;;;;;4.56;100.00;100751.99;1673575;86;21212;-89
2023/03/18 06:07:12;;;;;;;40.17;18.12;;;;;;;4.65;100.00;100758.47;1673162;86;21184;-89
2023/03/18 06:10:06;;;;;;;39.08;16.70;;;;;;;4.29;100.00;100765.95;1672307;84;21517;-89
2023/03/18 06:12:55;;;;;;;27.60;17.65;;;;;;;4.50;100.00;100756.54;1673574;86;21271;-88
2023/03/18 06:15:48;;;;;;;31.33;16.52;;;;;;;4.51;100.00;100756.05;1673655;86;21204;-88
2023/03/18 06:18:34;;;;;;;34.83;16.75;;;;;;;4.52;100.00;100767.27;1673438;86;21205;-88
2023/03/18 06:21:31;;;;;;;37.80;15.72;;;;;;;4.56;100.00;100766.00;1673559;86;21255;-89
2023/03/18 06:24:37;;;;;;;29.27;15.83;;;;;;;4.45;100.00;100778.23;1673376;86;21212;-89
2023/03/18 06:27:46;;;;;;;39.25;17.77;;;;;;;4.51;100.00;100777.22;1673717;86;21244;-89
2023/03/18 06:30:51;;;;;;;39.03;17.80;;;;;;;4.55;100.00;100774.62;1672535;84;21208;-89
2023/03/18 06:33:57;;;;;;;36.53;16.30;;;;;;;4.66;100.00;100772.87;1672153;86;21200;-89
2023/03/18 06:37:03;;;;;;;43.15;16.62;;;;;;;4.53;100.00;100778.47;1673525;86;21244;-89
2023/03/18 06:40:09;;;;;;;46.25;16.20;;;;;;;4.64;100.00;100785.20;1672238;86;21228;-89
2023/03/18 06:43:16;;;;;;;40.55;13.65;;;;;;;4.68;100.00;100779.91;1673570;86;21180;-90
2023/03/18 06:46:22;;;;;;;38.60;13.68;;;;;;;4.45;100.00;100789.06;1673476;84;21244;-90
2023/03/18 06:49:28;;;;;;;51.83;14.07;;;;;;;4.26;100.00;100779.72;1676348;85;21284;-89
2023/03/18 06:52:36;;;;;;;58.00;12.88;;;;;;;4.21;100.00;100777.89;1677782;84;21252;-90
2023/03/18 06:55:44;;;;;;;58.52;14.58;;;;;;;4.23;100.00;100779.96;1677584;85;21216;-90
2023/03/18 06:58:51;;;;;;;56.90;13.30;;;;;;;4.19;100.00;100778.98;1678966;82;21145;-89
2023/03/18 07:01:58;;;;;;;67.70;15.15;;;;;;;4.22;100.00;100773.33;1678613;84;21922;-90
2023/03/18 07:05:03;;;;;;;67.37;14.50;;;;;;;4.26;100.00;100779.72;1679262;84;21211;-90
2023/03/18 07:08:10;;;;;;;71.72;14.95;;;;;;;4.33;100.00;100790.94;1679082;85;21184;-91
2023/03/18 07:11:16;;;;;;;64.37;14.33;;;;;;;4.23;100.00;100788.58;1679023;85;21216;-90
2023/03/18 07:14:24;;;;;;;81.00;14.47;;;;;;;4.33;100.00;100782.32;1679224;85;21193;-90
2023/03/18 07:17:30;;;;;;;94.67;13.75;;;;;;;4.32;100.00;100783.77;1678444;84;21922;-91
2023/03/18 07:20:36;;;;;;;83.62;13.32;;;;;;;4.32;100.00;100791.41;1678137;85;21232;-89
2023/03/18 07:23:42;;;;;;;89.85;14.28;;;;;;;4.45;100.00;100799.90;1654823;85;21762;-90
2023/03/18 07:26:49;;;;;;;119.15;16.12;;;;;;;4.48;100.00;100784.27;1677796;85;21771;-89
2023/03/18 07:29:56;;;;;;;89.45;13.30;;;;;;;4.50;100.00;100790.90;1678360;85;21812;-89
2023/03/18 07:33:02;;;;;;;122.58;14.07;;;;;;;4.44;100.00;100800.89;1678217;84;21240;-88
2023/03/18 07:36:09;;;;;;;140.15;16.35;;;;;;;4.43;100.00;100805.45;1678970;85;21210;-89
2023/03/18 07:39:15;;;;;;;121.10;14.30;;;;;;;4.40;100.00;100802.13;1678743;85;21205;-89
2023/03/18 07:42:21;;;;;;;127.65;13.80;;;;;;;4.37;100.00;100804.58;1679050;85;21129;-88
2023/03/18 07:45:28;;;;;;;137.52;17.27;;;;;;;4.44;100.00;100802.25;1679018;85;21196;-88
2023/03/18 07:48:33;;;;;;;123.20;13.00;;;;;;;4.52;100.00;100800.64;1677974;84;21242;-89
2023/03/18 07:51:40;;;;;;;145.45;15.98;;;;;;;4.56;100.00;100803.94;1677957;85;21754;-88
2023/03/18 07:54:46;;;;;;;132.85;11.78;;;;;;;4.58;100.00;100801.98;1677970;85;21208;-89
2023/03/18 07:57:52;;;;;;;117.00;15.85;;;;;;;4.64;100.00;100812.30;1677846;85;21743;-89
2023/03/18 08:00:59;;;;;;;123.78;15.03;;;;;;;4.68;100.00;100822.41;1678618;85;21252;-88
2023/03/18 08:04:04;;;;;;;148.75;16.85;;;;;;;4.59;100.00;100805.91;1677820;84;21803;-88
2023/03/18 08:07:11;;;;;;;165.85;14.85;;;;;;;4.64;100.00;100809.59;1679177;85;21514;-89
2023/03/18 08:10:18;;;;;;;156.75;16.55;;;;;;;4.71;100.00;100810.83;1678936;85;21826;-90
2023/03/18 08:13:24;;;;;;;131.27;12.50;;;;;;;4.72;100.00;100811.19;1678926;85;21766;-88
2023/03/18 08:16:30;;;;;;;112.28;13.15;;;;;;;4.81;100.00;100808.22;1679042;85;21779;-89
2023/03/18 08:19:35;;;;;;;103.95;12.45;;;;;;;4.91;100.00;100804.24;1679118;85;21210;-89
2023/03/18 08:22:42;;;;;;;146.95;13.78;;;;;;;4.95;100.00;100811.99;1679121;85;21247;-88
2023/03/18 08:25:49;;;;;;;134.18;12.60;;;;;;;4.90;100.00;100818.80;1679150;83;22470;-89
2023/03/18 08:28:56;;;;;;;131.20;14.78;;;;;;;4.92;100.00;100818.16;1678794;85;21244;-88
2023/03/18 08:32:02;;;;;;;120.80;13.20;;;;;;;4.95;100.00;100811.99;1677689;85;21446;-87
2023/03/18 08:35:08;;;;;;;140.25;14.70;;;;;;;5.06;100.00;100807.88;1677694;85;22494;-89
2023/03/18 08:38:14;;;;;;;112.68;13.62;;;;;;;5.05;100.00;100816.15;1677769;85;21239;-88
2023/03/18 08:41:21;;;;;;;126.40;15.50;;;;;;;5.07;100.00;100831.78;1677757;85;21907;-89
2023/03/18 08:44:27;;;;;;;136.55;16.77;;;;;;;4.96;99.64;100832.69;1677737;85;21228;-90
2023/03/18 08:47:34;;;;;;;126.45;13.98;;;;;;;5.06;99.34;100817.87;1678664;85;21304;-88
2023/03/18 08:50:42;;;;;;;168.70;13.80;;;;;;;4.94;99.29;100836.03;1677090;85;21239;-88
2023/03/18 08:53:48;;;;;;;121.85;12.93;;;;;;;4.93;98.90;100825.30;1678304;84;21311;-89
2023/03/18 08:56:55;;;;;;;98.87;14.40;;;;;;;4.92;100.00;100819.52;1677263;85;21827;-89
2023/03/18 09:00:00;;;;;;;110.45;12.20;;;;;;;5.05;99.78;100827.00;1678630;85;21208;-88
2023/03/18 09:03:07;;;;;;;102.22;11.80;;;;;;;5.08;98.54;100818.58;1677975;85;21449;-87
2023/03/18 09:06:15;;;;;;;131.15;13.45;;;;;;;5.25;97.38;100822.60;1678672;85;21184;-89
2023/03/18 09:09:20;;;;;;;110.92;12.73;;;;;;;5.08;97.80;100830.78;1678114;85;21247;-88
2023/03/18 09:12:28;;;;;;;122.15;14.40;;;;;;;5.24;97.87;100823.09;1677842;85;21751;-89
2023/03/18 09:15:33;;;;;;;121.67;12.55;;;;;;;5.19;97.40;100837.55;1677642;85;21204;-88
2023/03/18 09:18:39;;;;;;;124.50;12.43;;;;;;;5.24;97.78;100823.59;1677466;85;21212;-89
2023/03/18 09:21:47;;;;;;;91.95;11.78;;;;;;;5.40;97.92;100832.14;1678486;85;21551;-89
2023/03/18 09:24:53;;;;;;;95.22;11.20;;;;;;;5.31;97.58;100836.49;1678204;84;21287;-89
2023/03/18 09:27:59;;;;;;;77.95;11.22;;;;;;;5.32;97.01;100842.81;1677637;85;21248;-88
2023/03/18 09:31:06;;;;;;;86.97;9.90;;;;;;;5.13;97.79;100840.78;1679160;84;21208;-89
2023/03/18 09:34:13;;;;;;;79.47;9.45;;;;;;;5.10;97.60;100839.67;1678784;85;21208;-89
2023/03/18 09:37:18;;;;;;;94.22;8.83;;;;;;;5.11;97.78;100840.89;1677693;82;21212;-89
2023/03/18 09:40:42;;;;;;;97.33;9.63;;;;;;;5.23;98.53;100839.52;1678716;82;21247;-88
2023/03/18 09:43:56;;;;;;;96.50;9.38;;;;;;;5.29;98.41;100831.70;1679047;84;21204;-89
2023/03/18 09:47:46;;;;;;;99.25;9.83;;;;;;;5.26;97.71;100835.16;1677836;84;21212;-89
2023/03/18 09:50:59;;;;;;;99.00;10.63;;;;;;;5.16;97.45;100841.86;1679327;82;21255;-88
2023/03/18 09:54:39;;;;;;;55.88;8.83;;;;;;;5.16;97.45;100841.86;1673589;82;21236;-89
2023/03/18 09:57:42;;;;;;;85.80;9.68;;;;;;;5.20;97.37;100842.47;1672270;84;21252;-88
2023/03/18 10:00:40;;;;;;;93.37;9.35;;;;;;;5.11;96.81;100853.59;1672431;84;21236;-88
2023/03/18 10:03:52;;;;;;;111.40;10.75;;;;;;;5.07;97.83;100843.98;1673503;85;21188;-88
2023/03/18 10:07:22;;;;;;;97.85;11.20;;;;;;;5.12;97.51;100833.11;1673633;85;21743;-89
2023/03/18 10:10:35;;;;;;;76.60;9.55;;;;;;;5.19;97.27;100836.69;1672762;84;21244;-89
2023/03/18 10:14:01;;;;;;;61.70;7.72;;;;;;;5.30;97.60;100835.28;1672068;86;21794;-89
2023/03/18 10:17:23;;;;;;;111.77;11.55;;;;;;;5.27;96.83;100835.06;1673601;86;21220;-89
2023/03/18 10:20:43;;;;;;;94.13;10.32;;;;;;;5.29;96.97;100834.92;1673676;86;21212;-88
2023/03/18 10:24:22;;;;;;;109.32;12.10;;;;;;;5.36;96.65;100844.24;1672500;86;21284;-89
2023/03/18 10:27:56;;;;;;;96.22;9.30;;;;;;;5.29;95.74;100827.64;1672389;86;21212;-89
2023/03/18 10:31:17;;;;;;;100.55;9.33;;;;;;;5.39;95.94;100826.36;1673821;85;21248;-89
2023/03/18 10:34:28;;;;;;;86.90;9.45;;;;;;;5.42;95.66;100827.47;1673622;86;21201;-89
2023/03/18 10:37:56;;;;;;;85.07;7.80;;;;;;;5.47;95.19;100826.58;1672373;86;21216;-88
2023/03/18 10:41:03;;;;;;;66.90;7.65;;;;;;;5.37;94.92;100829.72;1672754;85;21231;-89
2023/03/18 10:44:31;;;;;;;87.42;9.23;;;;;;;5.40;94.94;100824.00;1673779;86;21248;-88
2023/03/18 10:47:39;;;;;;;101.02;10.68;;;;;;;5.43;94.55;100827.83;1673406;86;21747;-89
2023/03/18 10:50:56;;;;;;;79.00;9.15;;;;;;;5.40;94.58;100821.30;1673749;86;21188;-88
2023/03/18 10:54:22;;;;;;;79.47;7.90;;;;;;;5.36;94.71;100823.43;1676463;85;21220;-89
2023/03/18 10:57:28;;;;;;;108.67;10.98;;;;;;;5.37;95.46;100814.30;1678862;85;21204;-88
2023/03/18 11:00:39;;;;;;;92.57;8.98;;;;;;;5.42;94.25;100831.53;1679271;85;21310;-88
2023/03/18 11:03:57;;;;;;;118.67;9.30;;;;;;;5.36;94.52;100818.47;1678200;82;21846;-89
2023/03/18 11:07:09;;;;;;;96.20;9.53;;;;;;;5.48;94.21;100816.08;1662864;85;21180;-89
2023/03/18 11:10:22;;;;;;;107.35;9.23;;;;;;;5.44;93.94;100811.91;1678843;84;21256;-88
2023/03/18 11:13:29;;;;;;;107.30;9.48;;;;;;;5.67;92.93;100815.86;1678391;84;21716;-89
2023/03/18 11:16:48;;;;;;;146.75;10.43;;;;;;;5.64;93.59;100808.83;1678821;85;21801;-89
2023/03/18 11:19:56;;;;;;;112.15;9.95;;;;;;;5.73;93.46;100805.32;1659333;85;21259;-89
2023/03/18 11:23:10;;;;;;;118.65;9.93;;;;;;;5.73;93.20;100809.39;1678257;85;21307;-89
2023/03/18 11:26:11;;;;;;;83.25;9.00;;;;;;;5.57;94.18;100799.52;1642703;85;21943;-88
2023/03/18 11:29:19;;;;;;;108.52;9.45;;;;;;;5.72;94.00;100802.75;1641757;85;21261;-89
2023/03/18 11:32:36;;;;;;;99.72;7.87;;;;;;;5.73;94.10;100796.31;1678549;84;21223;-89
2023/03/18 11:36:05;;;;;;;122.53;10.48;;;;;;;5.93;93.60;100795.49;1678650;85;21826;-88
2023/03/18 11:39:11;;;;;;;120.25;11.40;;;;;;;5.95;92.93;100813.86;1659954;85;21216;-88
2023/03/18 11:42:28;;;;;;;125.87;11.65;;;;;;;6.09;91.96;100802.63;1641952;85;21810;-89
2023/03/18 11:45:59;;;;;;;108.42;11.10;;;;;;;6.04;91.53;100809.48;1678964;85;21208;-89
2023/03/18 11:49:05;;;;;;;130.43;10.55;;;;;;;5.94;91.45;100805.85;1678838;85;21196;-89
2023/03/18 11:52:20;;;;;;;121.87;9.75;;;;;;;5.96;91.67;100798.42;1678768;85;21200;-89
2023/03/18 11:55:34;;;;;;;104.75;9.58;;;;;;;6.03;91.28;100807.77;1677343;85;21259;-89
2023/03/18 11:59:28;;;;;;;136.47;10.03;;;;;;;6.09;91.88;100801.28;1678639;85;21453;-88
2023/03/18 12:02:46;;;;;;;101.27;9.08;;;;;;;6.13;91.65;100800.02;1678647;85;21247;-89
2023/03/18 12:06:28;;;;;;;99.07;8.68;;;;;;;6.21;90.85;100799.81;1678684;85;21216;-88
2023/03/18 12:09:59;;;;;;;124.20;9.95;;;;;;;6.10;90.77;100804.85;1677386;85;21219;-89
2023/03/18 12:13:10;;;;;;;82.17;8.13;;;;;;;6.01;90.35;100796.16;1678829;84;21316;-89
2023/03/18 12:16:39;;;;;;;90.10;8.88;;;;;;;5.84;91.85;100803.91;1679030;85;21244;-89
2023/03/18 12:20:14;;;;;;;73.70;8.30;;;;;;;5.94;91.54;100797.70;1679071;85;21212;-89
2023/03/18 12:24:06;;;;;;;87.62;8.93;;;;;;;5.83;91.97;100799.48;1678981;85;21208;-89
2023/03/18 12:27:31;;;;;;;57.88;8.13;;;;;;;5.80;91.71;100797.02;1646082;85;21263;-89
2023/03/18 12:30:50;;;;;;;63.83;7.00;;;;;;;5.95;92.23;100790.77;1678173;85;21279;-89
2023/03/18 12:34:10;;;;;;;82.08;7.80;;;;;;;6.11;92.64;100792.48;1678781;85;21252;-89
2023/03/18 12:37:36;;;;;;;62.38;8.23;;;;;;;6.09;92.44;100802.63;1679183;85;21188;-89
2023/03/18 12:41:12;;;;;;;73.20;6.22;;;;;;;6.03;92.23;100785.53;1679055;85;21810;-89
2023/03/18 12:44:35;;;;;;;73.92;7.20;;;;;;;6.15;92.47;100787.64;1678450;85;21219;-89
2023/03/18 12:48:04;;;;;;;75.97;8.23;;;;;;;6.20;92.10;100784.52;1679081;82;21773;-88
2023/03/18 12:51:25;;;;;;;65.10;7.83;;;;;;;6.32;92.61;100786.16;1679081;85;21188;-89
2023/03/18 12:54:38;;;;;;;56.63;5.72;;;;;;;6.40;90.80;100791.27;1644495;85;21248;-89
2023/03/18 12:57:54;;;;;;;59.00;7.25;;;;;;;6.31;91.22;100783.09;1673117;85;21228;-89
2023/03/18 13:01:17;;;;;;;63.48;9.55;;;;;;;6.32;92.09;100784.80;1673409;86;21197;-89
2023/03/18 13:04:21;;;;;;;64.03;7.97;;;;;;;6.47;91.19;100797.50;1673175;85;21232;-88
2023/03/18 13:07:22;;;;;;;55.23;6.12;;;;;;;6.58;90.65;100781.93;1673627;86;21209;-89
2023/03/18 13:10:23;;;;;;;47.40;5.92;;;;;;;6.74;90.63;100782.77;1673667;86;21786;-89
2023/03/18 13:13:16;;;;;;;51.23;6.42;;;;;;;6.77;91.37;100777.53;1673224;84;21235;-88
2023/03/18 13:16:24;;;;;;;56.00;6.37;;;;;;;6.75;89.81;100772.25;1672503;86;21227;-89
2023/03/18 13:19:30;;;;;;;47.53;6.55;;;;;;;6.85;89.84;100772.27;1673608;86;21216;-87
2023/03/18 13:23:00;;;;;;;36.83;5.65;;;;;;;6.83;89.75;100769.69;1673416;86;21192;-89
2023/03/18 13:26:18;;;;;;;40.50;7.67;;;;;;;6.88;88.59;100761.11;1672424;85;22013;-89
2023/03/18 13:29:56;;;;;;;49.60;6.33;;;;;;;6.64;89.02;100783.25;1672489;84;21200;-88
2023/03/18 13:33:46;;;;;;;32.35;5.90;;;;;;;6.58;89.33;100775.13;1673415;86;21212;-89
2023/03/18 13:37:16;;;;;;;43.68;6.35;;;;;;;6.49;89.07;100778.69;1673876;86;21208;-89
2023/03/18 13:40:49;;;;;;;35.13;6.80;;;;;;;6.69;88.77;100766.02;1673647;86;21205;-89
2023/03/18 13:43:50;;;;;;;31.90;5.55;;;;;;;6.57;89.36;100765.77;1672833;84;21193;-88
2023/03/18 13:46:43;;;;;;;34.40;6.70;;;;;;;6.50;89.13;100779.57;1673692;86;21192;-88
2023/03/18 13:49:31;;;;;;;27.93;4.92;;;;;;;6.36;89.22;100757.72;1673771;86;21260;-89
2023/03/18 13:52:48;;;;;;;23.42;5.17;;;;;;;6.31;89.65;100767.64;1673662;86;21185;-88
2023/03/18 13:55:48;;;;;;;20.97;5.20;;;;;;;6.46;89.19;100757.74;1672871;85;21236;-88
2023/03/18 13:58:54;;;;;;;30.10;5.65;;;;;;;6.29;89.69;100762.83;1672387;85;21243;-89
2023/03/18 14:02:00;;;;;;;20.80;5.03;;;;;;;6.38;89.60;100767.43;1673357;86;21192;-89
2023/03/18 14:05:06;;;;;;;34.27;6.50;;;;;;;6.43;89.75;100757.50;1672803;86;21256;-88
2023/03/18 14:08:49;;;;;;;22.98;5.05;;;;;;;6.45;90.02;100765.54;1673041;86;21216;-89
2023/03/18 14:11:58;;;;;;;22.75;5.15;;;;;;;6.39;90.03;100770.50;1671329;85;21239;-89
2023/03/18 14:15:22;;;;;;;20.10;4.78;;;;;;;6.32;90.56;100762.56;1671947;84;21164;-88
2023/03/18 14:18:31;;;;;;;22.67;5.00;;;;;;;6.27;90.51;100753.97;1671886;86;21512;-89
2023/03/18 14:21:40;;;;;;;21.95;6.03;;;;;;;6.25;90.19;100761.88;1673589;86;21204;-88
2023/03/18 14:24:46;;;;;;;16.77;5.47;;;;;;;6.22;90.60;100773.89;1672105;85;21252;-88
2023/03/18 14:27:56;;;;;;;16.15;5.92;;;;;;;6.25;90.19;100768.16;1673751;86;21256;-89
2023/03/18 14:31:06;;;;;;;16.73;6.42;;;;;;;6.18;90.52;100763.44;1673745;86;21239;-88
2023/03/18 14:34:22;;;;;;;17.92;5.33;;;;;;;6.06;90.91;100765.38;1673727;86;21209;-88
2023/03/18 14:37:27;;;;;;;17.65;5.67;;;;;;;6.16;89.34;100774.42;1672441;86;21224;-89
2023/03/18 14:40:32;;;;;;;;;;;;;;;6.13;89.57;100770.64;1674543;86;21208;-88
2023/03/18 14:43:49;;;;;;;13.03;4.97;;;;;;;6.13;89.58;100779.64;1672285;84;20187;-88
2023/03/18 14:46:58;;;;;;;16.97;5.53;;;;;;;6.06;89.55;100777.59;1672304;86;21264;-89
2023/03/18 14:50:23;;;;;;;18.50;5.30;;;;;;;6.04;89.63;100776.89;1673585;86;21196;-89
2023/03/18 14:53:41;;;;;;;15.58;5.97;;;;;;;6.02;89.84;100787.00;1667910;86;21600;-88
2023/03/18 14:56:48;;;;;;;14.13;4.60;;;;;;;5.95;89.87;100795.34;1672246;85;21222;-88
2023/03/18 14:59:54;;;;;;;14.70;4.85;;;;;;;5.89;90.42;100795.36;1656107;86;21240;-88